Time;durP1;ratioP1;P1;durP2;ratioP2;P2;SDS_P1;SDS_P2;PMS_P1;PMS_P2;Temp;Humidity;BMP_temperature;BMP_pressure;BME280_temperature;BME280_humidity;BME280_pressure;Samples;Min_cycle;Max_cycle;Signal;HPM_P1;HPM_P2
2022/12/23 00:00:42;;;;;;;2.87;1.63;;;;;;;;;;4982868;28;20266;-86
2022/12/23 00:03:11;;;;;;;3.70;3.37;;;;;;;;;;4979216;28;20300;-86
2022/12/23 00:05:40;;;;;;;2.40;2.00;;;;;;;;;;4996071;28;20255;-86
2022/12/23 00:08:08;;;;;;;1.00;1.00;;;;;;;;;;5015759;28;20232;-86
2022/12/23 00:10:38;;;;;;;2.50;2.30;;;;;;;;;;4996897;28;20206;-86
2022/12/23 00:16:01;;;;;;;3.07;1.77;;;;;;;;;;4976462;28;20206;-86
2022/12/23 00:18:30;;;;;;;8.53;5.13;;;;;;;;;;4997800;28;20214;-86
2022/12/23 00:20:59;;;;;;;2.57;2.00;;;;;;;;;;5015025;28;20210;-86
2022/12/23 00:23:36;;;;;;;1.77;1.67;;;;;;;;;;4997340;28;20268;-86
2022/12/23 00:26:05;;;;;;;3.57;1.90;;;;;;;;;;4978697;28;20241;-86
2022/12/23 00:28:35;;;;;;;0.80;0.80;;;;;;;;;;4994718;28;20246;-86
2022/12/23 00:31:04;;;;;;;2.23;2.10;;;;;;;;;;4978307;28;20209;-86
2022/12/23 00:33:33;;;;;;;6.47;3.40;;;;;;;;;;5000107;28;20204;-86
2022/12/23 00:36:02;;;;;;;3.83;2.73;;;;;;;;;;4998535;28;20207;-86
2022/12/23 00:44:05;;;;;;;2.67;2.43;;;;;;;;;;5015238;28;20237;-86
2022/12/23 00:46:33;;;;;;;4.20;3.60;;;;;;;;;;5007357;28;20215;-86
2022/12/23 00:51:48;;;;;;;5.13;4.73;;;;;;;;;;4973937;28;20297;-86
2022/12/23 00:54:16;;;;;;;8.60;5.10;;;;;;;;;;4994766;28;20209;-86
2022/12/23 00:56:45;;;;;;;7.50;5.47;;;;;;;;;;4977890;28;20257;-86
2022/12/23 00:59:15;;;;;;;2.60;2.43;;;;;;;;;;5008476;28;20215;-86
2022/12/23 01:07:15;;;;;;;5.20;3.87;;;;;;;;;;4998562;28;20207;-86
2022/12/23 01:09:44;;;;;;;4.10;3.80;;;;;;;;;;5003474;28;20202;-86
2022/12/23 01:12:12;;;;;;;3.30;3.07;;;;;;;;;;4982252;28;20232;-86
2022/12/23 01:14:42;;;;;;;4.03;3.47;;;;;;;;;;5002183;28;20206;-86
2022/12/23 01:17:10;;;;;;;2.90;2.70;;;;;;;;;;5007696;28;20239;-86
2022/12/23 01:19:39;;;;;;;1.67;1.47;;;;;;;;;;4989981;28;20292;-86
2022/12/23 01:22:24;;;;;;;1.17;1.17;;;;;;;;;;5598408;22;20241;-86
2022/12/23 01:24:53;;;;;;;0.70;0.70;;;;;;;;;;5016875;28;20193;-86
2022/12/23 01:27:21;;;;;;;7.97;3.50;;;;;;;;;;5016600;28;20233;-86
2022/12/23 01:29:51;;;;;;;0.97;0.97;;;;;;;;;;5036366;28;20235;-86
2022/12/23 01:32:19;;;;;;;3.20;2.57;;;;;;;;;;5036313;28;20220;-86
2022/12/23 01:34:47;;;;;;;4.33;3.27;;;;;;;;;;5023394;28;20206;-86
2022/12/23 01:37:16;;;;;;;1.83;1.57;;;;;;;;;;5035860;28;20212;-86
2022/12/23 01:39:44;;;;;;;5.60;4.90;;;;;;;;;;5036076;28;20211;-86
2022/12/23 01:45:01;;;;;;;6.03;3.23;;;;;;;;;;5035645;28;20216;-85
2022/12/23 01:47:36;;;;;;;12.10;7.17;;;;;;;;;;5040904;28;20224;-86
2022/12/23 01:50:08;;;;;;;1.53;1.53;;;;;;;;;;5034113;28;20311;-86
2022/12/23 01:52:40;;;;;;;5.60;5.07;;;;;;;;;;5025982;28;20211;-86
2022/12/23 01:55:08;;;;;;;7.50;6.40;;;;;;;;;;5022699;28;20216;-85
2022/12/23 01:57:37;;;;;;;3.13;2.90;;;;;;;;;;5040324;28;20274;-86
2022/12/23 02:05:40;;;;;;;2.60;2.43;;;;;;;;;;5032546;28;20403;-85
2022/12/23 02:11:11;;;;;;;3.90;1.43;;;;;;;;;;5016485;28;20209;-86
2022/12/23 02:16:15;;;;;;;0.83;0.83;;;;;;;;;;5035824;28;20229;-86
2022/12/23 02:16:34;;;;;;;4.43;2.97;;;;;;;;;;5035950;28;20230;-86
2022/12/23 02:19:08;;;;;;;5.43;4.23;;;;;;;;;;5031833;28;20201;-86
2022/12/23 02:21:50;;;;;;;2.77;2.67;;;;;;;;;;5034459;28;20214;-85
2022/12/23 02:24:33;;;;;;;6.80;3.23;;;;;;;;;;5024992;28;20200;-86
2022/12/23 02:27:08;;;;;;;3.33;3.13;;;;;;;;;;5034448;28;20265;-86
2022/12/23 02:29:54;;;;;;;4.40;3.97;;;;;;;;;;5035175;28;20207;-86
2022/12/23 02:32:30;;;;;;;3.73;3.40;;;;;;;;;;5004964;28;20197;-86
2022/12/23 02:35:03;;;;;;;8.43;5.43;;;;;;;;;;5031493;28;20209;-86
2022/12/23 02:37:35;;;;;;;1.50;1.40;;;;;;;;;;5024755;28;20287;-86
2022/12/23 02:40:05;;;;;;;2.20;2.00;;;;;;;;;;5033618;28;20201;-86
2022/12/23 02:42:36;;;;;;;2.60;1.83;;;;;;;;;;5035182;28;20236;-86
2022/12/23 02:45:09;;;;;;;1.77;1.67;;;;;;;;;;5032921;28;20270;-86
2022/12/23 02:47:42;;;;;;;3.60;1.97;;;;;;;;;;5033209;28;20224;-86
2022/12/23 02:50:12;;;;;;;1.33;1.33;;;;;;;;;;5034455;28;20295;-86
2022/12/23 02:52:41;;;;;;;2.40;2.20;;;;;;;;;;5007965;28;20199;-85
2022/12/23 02:55:12;;;;;;;3.00;2.80;;;;;;;;;;5025523;28;20228;-86
2022/12/23 02:57:41;;;;;;;5.00;2.50;;;;;;;;;;5030982;28;20197;-86
2022/12/23 03:00:11;;;;;;;3.03;2.70;;;;;;;;;;5024648;28;20251;-86
2022/12/23 03:02:42;;;;;;;7.30;5.80;;;;;;;;;;5026028;28;20207;-86
2022/12/23 03:05:24;;;;;;;6.80;4.90;;;;;;;;;;5034799;28;20197;-86
2022/12/23 03:07:53;;;;;;;0.83;0.83;;;;;;;;;;5034911;28;20241;-86
2022/12/23 03:10:28;;;;;;;3.97;3.67;;;;;;;;;;5030274;28;20225;-86
2022/12/23 03:13:04;;;;;;;3.77;3.47;;;;;;;;;;5028454;28;20288;-86
2022/12/23 03:15:37;;;;;;;12.53;7.30;;;;;;;;;;5043184;28;20207;-86
2022/12/23 03:18:10;;;;;;;4.17;3.90;;;;;;;;;;5033857;28;20288;-86
2022/12/23 03:20:42;;;;;;;1.17;1.17;;;;;;;;;;5020133;28;20205;-86
2022/12/23 03:23:16;;;;;;;1.13;1.13;;;;;;;;;;5018606;28;20235;-86
2022/12/23 03:25:48;;;;;;;4.43;3.93;;;;;;;;;;5029646;28;20201;-85
2022/12/23 03:28:18;;;;;;;1.67;1.67;;;;;;;;;;5037796;28;20217;-86
2022/12/23 03:30:48;;;;;;;0.90;0.90;;;;;;;;;;5018929;28;20255;-86
2022/12/23 03:33:20;;;;;;;0.63;0.63;;;;;;;;;;5024219;28;20207;-86
2022/12/23 03:35:49;;;;;;;0.47;0.47;;;;;;;;;;5032410;28;20227;-86
2022/12/23 03:38:19;;;;;;;0.47;0.47;;;;;;;;;;5018869;28;20190;-86
2022/12/23 03:40:50;;;;;;;3.53;3.33;;;;;;;;;;5056525;28;20255;-86
2022/12/23 03:43:20;;;;;;;0.50;0.50;;;;;;;;;;5010717;28;20288;-86
2022/12/23 03:45:51;;;;;;;2.17;2.07;;;;;;;;;;5026842;28;20247;-85
2022/12/23 03:48:23;;;;;;;2.30;2.20;;;;;;;;;;5037959;28;20236;-85
2022/12/23 03:50:54;;;;;;;5.57;3.47;;;;;;;;;;5038409;28;20211;-86
2022/12/23 03:53:24;;;;;;;1.37;1.37;;;;;;;;;;5033514;28;20233;-86
2022/12/23 03:55:56;;;;;;;1.23;1.20;;;;;;;;;;5046773;28;20204;-86
2022/12/23 03:58:29;;;;;;;0.70;0.70;;;;;;;;;;5049682;28;20212;-86
2022/12/23 04:01:00;;;;;;;1.90;1.80;;;;;;;;;;5049474;28;20284;-86
2022/12/23 04:03:33;;;;;;;1.67;1.60;;;;;;;;;;5029980;28;20305;-86
2022/12/23 04:06:03;;;;;;;0.70;0.70;;;;;;;;;;5035588;28;20206;-86
2022/12/23 04:08:33;;;;;;;3.80;3.70;;;;;;;;;;5027712;28;20216;-85
2022/12/23 04:16:34;;;;;;;0.50;0.50;;;;;;;;;;4999014;28;20231;-85
2022/12/23 04:19:04;;;;;;;0.80;0.80;;;;;;;;;;5009635;28;20233;-86
2022/12/23 04:21:33;;;;;;;0.50;0.50;;;;;;;;;;5002380;28;20214;-85
2022/12/23 04:24:01;;;;;;;0.60;0.60;;;;;;;;;;5025864;28;20252;-86
2022/12/23 04:26:29;;;;;;;0.97;0.97;;;;;;;;;;5008803;28;20259;-86
2022/12/23 04:28:58;;;;;;;2.03;1.73;;;;;;;;;;5013884;28;20202;-86
2022/12/23 04:31:26;;;;;;;0.50;0.50;;;;;;;;;;4992187;28;20196;-86
2022/12/23 04:33:54;;;;;;;1.07;1.07;;;;;;;;;;5001956;28;20248;-86
2022/12/23 04:36:24;;;;;;;1.50;1.40;;;;;;;;;;5024270;28;20210;-86
2022/12/23 04:38:53;;;;;;;1.40;1.40;;;;;;;;;;5007709;28;20330;-86
2022/12/23 04:41:22;;;;;;;1.97;1.87;;;;;;;;;;5002045;28;20202;-86
2022/12/23 04:43:51;;;;;;;2.87;2.40;;;;;;;;;;5014113;28;20255;-86
2022/12/23 04:46:20;;;;;;;1.63;1.53;;;;;;;;;;5006973;28;20194;-86
2022/12/23 04:48:49;;;;;;;2.97;2.87;;;;;;;;;;4998944;28;20212;-86
2022/12/23 04:51:17;;;;;;;1.90;1.10;;;;;;;;;;4996343;28;20223;-86
2022/12/23 04:53:47;;;;;;;4.60;3.03;;;;;;;;;;5013817;28;20233;-86
2022/12/23 04:56:15;;;;;;;2.40;2.23;;;;;;;;;;5030399;28;20236;-86
2022/12/23 04:58:44;;;;;;;1.90;1.43;;;;;;;;;;5026450;28;20217;-86
2022/12/23 05:01:12;;;;;;;3.40;2.50;;;;;;;;;;5013808;28;20198;-86
2022/12/23 05:03:41;;;;;;;5.93;2.87;;;;;;;;;;5004965;28;20194;-86
2022/12/23 05:06:09;;;;;;;3.47;3.13;;;;;;;;;;5035029;28;20213;-86
2022/12/23 05:08:38;;;;;;;0.97;0.97;;;;;;;;;;5002209;28;20226;-86
2022/12/23 05:11:07;;;;;;;4.77;3.40;;;;;;;;;;5028551;28;20202;-86
2022/12/23 05:13:36;;;;;;;0.50;0.50;;;;;;;;;;5026016;28;20317;-86
2022/12/23 05:16:04;;;;;;;3.20;1.93;;;;;;;;;;4999883;28;20312;-85
2022/12/23 05:18:33;;;;;;;1.33;1.33;;;;;;;;;;4995366;28;20266;-86
2022/12/23 05:21:01;;;;;;;11.90;3.03;;;;;;;;;;5019245;28;20206;-85
2022/12/23 05:23:29;;;;;;;2.17;2.10;;;;;;;;;;5007935;28;20202;-86
2022/12/23 05:25:58;;;;;;;0.60;0.60;;;;;;;;;;5013681;28;20198;-85
2022/12/23 05:28:28;;;;;;;2.50;1.90;;;;;;;;;;5013393;28;20229;-86
2022/12/23 05:30:59;;;;;;;5.53;3.07;;;;;;;;;;5013613;28;20202;-86
2022/12/23 05:33:28;;;;;;;1.13;1.13;;;;;;;;;;5013926;28;20249;-85
2022/12/23 05:35:56;;;;;;;3.57;3.13;;;;;;;;;;5026737;28;20233;-85
2022/12/23 05:38:25;;;;;;;6.17;3.77;;;;;;;;;;5003236;28;20209;-86
2022/12/23 05:40:54;;;;;;;7.07;2.10;;;;;;;;;;5008608;28;20202;-86
2022/12/23 05:43:22;;;;;;;4.13;3.80;;;;;;;;;;5020984;28;20209;-86
2022/12/23 05:45:52;;;;;;;1.30;1.20;;;;;;;;;;5013433;28;20244;-86
2022/12/23 05:48:21;;;;;;;4.60;3.33;;;;;;;;;;4995216;28;20231;-86
2022/12/23 05:50:50;;;;;;;3.73;2.47;;;;;;;;;;5011620;28;20193;-86
2022/12/23 05:53:19;;;;;;;1.23;1.13;;;;;;;;;;5013121;28;20240;-86
2022/12/23 05:55:48;;;;;;;2.17;2.07;;;;;;;;;;4999847;28;20201;-86
2022/12/23 05:58:16;;;;;;;0.53;0.53;;;;;;;;;;5012607;28;20198;-86
2022/12/23 06:00:45;;;;;;;6.43;5.37;;;;;;;;;;4994334;28;20210;-85
2022/12/23 06:03:14;;;;;;;6.13;3.77;;;;;;;;;;4994081;28;20221;-85
2022/12/23 06:05:43;;;;;;;1.13;1.13;;;;;;;;;;5005993;28;20208;-86
2022/12/23 06:08:11;;;;;;;4.60;2.50;;;;;;;;;;5007087;28;20225;-86
2022/12/23 06:10:40;;;;;;;1.13;1.03;;;;;;;;;;5013793;28;20208;-85
2022/12/23 06:13:08;;;;;;;2.60;1.83;;;;;;;;;;4999134;28;20239;-85
2022/12/23 06:15:37;;;;;;;1.00;1.00;;;;;;;;;;5012407;28;20253;-85
2022/12/23 06:18:05;;;;;;;6.23;4.37;;;;;;;;;;5012275;28;20241;-86
2022/12/23 06:20:35;;;;;;;5.50;2.73;;;;;;;;;;4996098;28;20259;-86
2022/12/23 06:23:03;;;;;;;2.37;2.17;;;;;;;;;;5010517;28;20210;-86
2022/12/23 06:25:32;;;;;;;5.43;5.00;;;;;;;;;;5013776;28;20263;-85
2022/12/23 06:28:00;;;;;;;1.70;1.57;;;;;;;;;;5011074;28;20247;-86
2022/12/23 06:30:28;;;;;;;14.07;4.90;;;;;;;;;;5003559;28;20202;-86
2022/12/23 06:32:56;;;;;;;3.50;2.30;;;;;;;;;;5007810;28;20201;-86
2022/12/23 06:35:25;;;;;;;2.20;1.60;;;;;;;;;;4994963;28;20257;-86
2022/12/23 06:37:54;;;;;;;11.47;6.50;;;;;;;;;;5011671;28;20232;-85
2022/12/23 06:40:23;;;;;;;2.93;2.10;;;;;;;;;;5013660;28;20209;-86
2022/12/23 06:42:51;;;;;;;2.90;2.20;;;;;;;;;;4995280;28;20225;-85
2022/12/23 06:45:20;;;;;;;9.90;6.93;;;;;;;;;;5005491;28;20259;-86
2022/12/23 06:47:48;;;;;;;5.90;3.13;;;;;;;;;;5012092;28;20291;-85
2022/12/23 06:50:16;;;;;;;4.10;2.80;;;;;;;;;;4999316;28;20234;-85
2022/12/23 06:52:45;;;;;;;0.90;0.90;;;;;;;;;;5001135;28;20194;-85
2022/12/23 06:55:15;;;;;;;4.50;2.37;;;;;;;;;;5015809;28;20202;-85
2022/12/23 06:57:43;;;;;;;4.33;3.97;;;;;;;;;;5008687;28;20215;-85
2022/12/23 07:00:12;;;;;;;3.80;3.17;;;;;;;;;;5010918;28;20200;-86
2022/12/23 07:02:40;;;;;;;12.73;5.97;;;;;;;;;;5012898;28;20208;-86
2022/12/23 07:05:09;;;;;;;1.53;1.50;;;;;;;;;;5009973;28;20214;-86
2022/12/23 07:07:38;;;;;;;1.40;1.40;;;;;;;;;;5010888;28;20260;-86
2022/12/23 07:10:07;;;;;;;0.50;0.50;;;;;;;;;;5015360;28;20276;-86
2022/12/23 07:12:37;;;;;;;9.37;4.03;;;;;;;;;;5010912;28;20213;-86
2022/12/23 07:15:06;;;;;;;1.17;1.17;;;;;;;;;;5015109;28;20295;-86
2022/12/23 07:17:35;;;;;;;1.57;1.47;;;;;;;;;;4999041;28;20228;-86
2022/12/23 07:20:03;;;;;;;3.80;3.07;;;;;;;;;;5000686;28;20193;-86
2022/12/23 07:22:31;;;;;;;4.37;0.97;;;;;;;;;;5009720;28;20216;-87
2022/12/23 07:25:00;;;;;;;2.27;2.07;;;;;;;;;;5014866;28;20202;-86
2022/12/23 07:27:28;;;;;;;2.03;0.97;;;;;;;;;;4996847;28;20203;-87
2022/12/23 07:29:58;;;;;;;3.00;2.70;;;;;;;;;;5015251;28;20210;-87
2022/12/23 07:32:26;;;;;;;3.00;2.73;;;;;;;;;;5008450;28;20212;-86
2022/12/23 07:34:55;;;;;;;1.10;1.10;;;;;;;;;;5002934;28;20208;-86
2022/12/23 07:37:23;;;;;;;2.93;2.23;;;;;;;;;;4994818;28;20210;-86
2022/12/23 07:39:51;;;;;;;7.47;2.27;;;;;;;;;;5004693;28;20275;-88
2022/12/23 07:42:20;;;;;;;1.47;1.37;;;;;;;;;;5002896;28;20247;-88
2022/12/23 07:45:10;;;;;;;2.43;2.13;;;;;;;;;;5003277;28;20210;-88
2022/12/23 07:47:38;;;;;;;1.40;1.33;;;;;;;;;;5004540;28;20206;-88
2022/12/23 07:50:08;;;;;;;0.80;0.80;;;;;;;;;;5009060;28;20260;-88
2022/12/23 07:52:36;;;;;;;1.60;1.37;;;;;;;;;;4997048;28;20259;-88
2022/12/23 07:55:05;;;;;;;1.20;1.20;;;;;;;;;;5015765;28;20263;-88
2022/12/23 07:57:36;;;;;;;2.47;1.93;;;;;;;;;;4995290;28;20220;-88
2022/12/23 08:00:05;;;;;;;3.03;2.07;;;;;;;;;;4997691;28;20198;-88
2022/12/23 08:02:35;;;;;;;13.07;3.87;;;;;;;;;;4998546;28;20205;-88
2022/12/23 08:05:04;;;;;;;6.37;4.60;;;;;;;;;;4999780;28;20209;-88
2022/12/23 08:07:33;;;;;;;1.97;1.80;;;;;;;;;;4999516;28;20209;-88
2022/12/23 08:10:01;;;;;;;1.77;1.67;;;;;;;;;;5002863;28;20232;-88
2022/12/23 08:12:29;;;;;;;6.97;2.63;;;;;;;;;;5009536;28;20255;-88
2022/12/23 08:14:58;;;;;;;1.77;1.67;;;;;;;;;;5012129;28;20216;-88
2022/12/23 08:17:27;;;;;;;4.67;2.37;;;;;;;;;;4999609;28;20266;-88
2022/12/23 08:19:57;;;;;;;2.20;2.10;;;;;;;;;;5014857;28;20188;-88
2022/12/23 08:22:25;;;;;;;1.80;1.80;;;;;;;;;;5015756;28;20209;-88
2022/12/23 08:24:54;;;;;;;11.07;5.07;;;;;;;;;;5011888;28;20212;-88
2022/12/23 08:27:22;;;;;;;0.80;0.80;;;;;;;;;;5007811;28;20197;-88
2022/12/23 08:29:56;;;;;;;2.97;2.77;;;;;;;;;;5005432;28;20216;-88
2022/12/23 08:32:26;;;;;;;5.13;3.00;;;;;;;;;;5001174;28;20206;-88
2022/12/23 08:34:58;;;;;;;6.63;4.23;;;;;;;;;;5001862;28;20192;-90
2022/12/23 08:37:26;;;;;;;3.63;2.87;;;;;;;;;;4993369;28;20213;-84
2022/12/23 08:39:55;;;;;;;5.10;3.77;;;;;;;;;;5011543;28;20190;-82
2022/12/23 08:42:23;;;;;;;3.60;3.00;;;;;;;;;;5003892;28;20209;-83
2022/12/23 08:44:51;;;;;;;6.10;3.90;;;;;;;;;;5022469;28;20209;-82
2022/12/23 08:47:20;;;;;;;13.33;6.33;;;;;;;;;;5001456;28;20198;-81
2022/12/23 08:49:48;;;;;;;11.10;4.77;;;;;;;;;;5010362;28;20271;-81
2022/12/23 08:52:18;;;;;;;11.37;5.27;;;;;;;;;;4997321;28;20238;-83
2022/12/23 08:54:46;;;;;;;7.20;4.13;;;;;;;;;;5006521;28;20207;-82
2022/12/23 08:57:15;;;;;;;7.53;3.40;;;;;;;;;;5009600;28;20201;-83
2022/12/23 08:59:43;;;;;;;7.63;4.83;;;;;;;;;;5000736;28;20203;-83
2022/12/23 09:02:12;;;;;;;2.37;2.27;;;;;;;;;;5013531;28;20215;-85
2022/12/23 09:04:41;;;;;;;11.00;6.83;;;;;;;;;;4991918;28;20241;-84
2022/12/23 09:07:09;;;;;;;9.80;6.10;;;;;;;;;;4991367;28;20259;-84
2022/12/23 09:09:39;;;;;;;17.40;8.40;;;;;;;;;;4989166;28;20240;-85
2022/12/23 09:12:07;;;;;;;10.67;5.67;;;;;;;;;;4994729;28;20201;-82
2022/12/23 09:14:36;;;;;;;15.90;8.33;;;;;;;;;;4987039;28;20225;-82
2022/12/23 09:17:04;;;;;;;15.47;7.67;;;;;;;;;;5005328;28;20386;-83
2022/12/23 09:19:35;;;;;;;14.10;7.67;;;;;;;;;;5032225;28;20201;-83
2022/12/23 09:22:04;;;;;;;14.13;7.90;;;;;;;;;;5011817;28;20204;-83
2022/12/23 09:24:36;;;;;;;6.90;4.47;;;;;;;;;;5030915;28;20204;-83
2022/12/23 09:27:06;;;;;;;24.87;8.97;;;;;;;;;;5031250;28;20237;-83
2022/12/23 09:29:34;;;;;;;8.90;5.23;;;;;;;;;;5011741;28;20218;-83
2022/12/23 09:32:03;;;;;;;4.47;4.07;;;;;;;;;;5017659;28;20202;-82
2022/12/23 09:34:31;;;;;;;12.20;6.23;;;;;;;;;;5018775;28;20216;-83
2022/12/23 09:37:03;;;;;;;11.77;5.30;;;;;;;;;;5027482;28;20219;-83
2022/12/23 09:39:32;;;;;;;14.00;5.97;;;;;;;;;;5022488;28;20258;-83
2022/12/23 09:42:05;;;;;;;10.27;6.13;;;;;;;;;;5010258;28;20216;-84
2022/12/23 09:44:40;;;;;;;3.83;3.53;;;;;;;;;;5018045;28;20264;-82
2022/12/23 09:47:11;;;;;;;16.97;6.37;;;;;;;;;;5008062;28;20303;-82
2022/12/23 09:49:44;;;;;;;3.57;3.33;;;;;;;;;;5008911;28;20199;-82
2022/12/23 09:52:17;;;;;;;4.33;3.17;;;;;;;;;;5011733;28;20220;-84
2022/12/23 09:54:49;;;;;;;8.90;5.03;;;;;;;;;;5010744;28;20203;-85
2022/12/23 09:57:21;;;;;;;9.43;4.17;;;;;;;;;;5013145;28;20203;-84
2022/12/23 09:59:57;;;;;;;2.23;2.03;;;;;;;;;;5029133;28;20200;-86
2022/12/23 10:02:29;;;;;;;9.33;5.70;;;;;;;;;;5028798;28;20203;-86
2022/12/23 10:05:03;;;;;;;13.97;5.63;;;;;;;;;;5017412;28;20294;-84
2022/12/23 10:07:35;;;;;;;4.80;2.37;;;;;;;;;;5013923;28;20196;-84
2022/12/23 10:10:08;;;;;;;7.93;3.40;;;;;;;;;;5010093;28;20223;-84
2022/12/23 10:12:38;;;;;;;7.87;4.37;;;;;;;;;;5029501;28;20200;-85
2022/12/23 10:15:17;;;;;;;14.30;6.27;;;;;;;;;;5010210;28;20231;-86
2022/12/23 10:17:46;;;;;;;27.60;9.07;;;;;;;;;;5023101;28;20217;-84
2022/12/23 10:20:17;;;;;;;17.87;6.77;;;;;;;;;;5008466;28;20287;-85
2022/12/23 10:22:47;;;;;;;9.23;5.47;;;;;;;;;;5023057;28;20202;-88
2022/12/23 10:25:17;;;;;;;10.67;4.97;;;;;;;;;;5005466;28;20213;-84
2022/12/23 10:27:46;;;;;;;10.03;4.37;;;;;;;;;;5009937;28;20212;-84
2022/12/23 10:30:18;;;;;;;16.53;4.83;;;;;;;;;;5032189;28;20258;-86
2022/12/23 10:33:12;;;;;;;11.73;5.33;;;;;;;;;;5012467;28;20207;-88
2022/12/23 10:35:48;;;;;;;8.90;4.63;;;;;;;;;;5034367;28;20239;-87
2022/12/23 10:38:23;;;;;;;26.40;9.77;;;;;;;;;;5010902;28;20207;-88
2022/12/23 10:40:55;;;;;;;8.90;5.03;;;;;;;;;;5031245;28;20200;-87
2022/12/23 10:43:27;;;;;;;4.60;2.27;;;;;;;;;;5036059;28;20207;-88
2022/12/23 10:45:59;;;;;;;5.33;2.87;;;;;;;;;;5012472;28;20204;-89
2022/12/23 10:48:34;;;;;;;18.33;4.77;;;;;;;;;;5033660;28;20200;-88
2022/12/23 10:51:05;;;;;;;18.30;6.50;;;;;;;;;;5010947;28;20238;-89
2022/12/23 10:53:36;;;;;;;5.80;3.60;;;;;;;;;;5033262;28;20200;-88
2022/12/23 10:56:05;;;;;;;13.90;5.50;;;;;;;;;;5009550;28;20198;-87
2022/12/23 10:58:37;;;;;;;12.23;5.57;;;;;;;;;;5016500;28;20294;-88
2022/12/23 11:01:08;;;;;;;15.77;7.13;;;;;;;;;;5036292;28;20194;-88
2022/12/23 11:03:49;;;;;;;17.93;6.87;;;;;;;;;;5013988;28;20305;-89
2022/12/23 11:06:18;;;;;;;20.40;6.60;;;;;;;;;;5012262;28;20246;-89
2022/12/23 11:08:46;;;;;;;28.53;9.53;;;;;;;;;;5019943;28;20201;-88
2022/12/23 11:11:15;;;;;;;14.60;6.73;;;;;;;;;;5019470;28;20214;-88
2022/12/23 11:13:45;;;;;;;12.50;7.13;;;;;;;;;;5020312;28;20227;-89
2022/12/23 11:16:19;;;;;;;13.70;5.70;;;;;;;;;;5032555;28;20240;-87
2022/12/23 11:18:55;;;;;;;12.30;6.03;;;;;;;;;;5007925;28;20295;-90
2022/12/23 11:21:23;;;;;;;16.70;6.03;;;;;;;;;;5016281;28;20203;-89
2022/12/23 11:24:08;;;;;;;9.70;6.10;;;;;;;;;;5014481;28;20208;-89
2022/12/23 11:26:36;;;;;;;5.60;4.33;;;;;;;;;;5014214;28;20251;-89
2022/12/23 11:29:06;;;;;;;14.43;6.13;;;;;;;;;;5017484;28;20208;-87
2022/12/23 11:31:36;;;;;;;8.63;4.40;;;;;;;;;;5037920;28;20220;-88
2022/12/23 11:34:05;;;;;;;18.17;7.83;;;;;;;;;;5006010;28;20197;-87
2022/12/23 11:36:36;;;;;;;14.97;7.50;;;;;;;;;;5032139;28;20235;-89
2022/12/23 11:39:06;;;;;;;20.53;10.40;;;;;;;;;;5017628;28;20205;-87
2022/12/23 11:41:37;;;;;;;8.60;4.27;;;;;;;;;;5005040;28;20224;-89
2022/12/23 11:44:15;;;;;;;19.20;8.70;;;;;;;;;;5017001;28;20203;-87
2022/12/23 11:46:45;;;;;;;10.87;5.87;;;;;;;;;;5014264;28;20204;-89
2022/12/23 11:49:17;;;;;;;9.33;5.50;;;;;;;;;;5017747;28;20213;-89
2022/12/23 11:51:46;;;;;;;10.00;4.63;;;;;;;;;;5008983;28;20235;-89
2022/12/23 11:54:19;;;;;;;12.47;7.67;;;;;;;;;;5027774;28;20204;-91
2022/12/23 11:56:50;;;;;;;4.80;3.70;;;;;;;;;;5030069;28;20205;-90
2022/12/23 11:59:30;;;;;;;3.40;3.10;;;;;;;;;;5012455;28;20304;-90
2022/12/23 12:02:00;;;;;;;7.63;4.43;;;;;;;;;;5007670;28;20246;-89
2022/12/23 12:04:31;;;;;;;9.07;4.27;;;;;;;;;;5030484;28;20197;-91
2022/12/23 12:07:00;;;;;;;3.27;3.10;;;;;;;;;;5010733;28;20212;-91
2022/12/23 12:09:30;;;;;;;7.90;5.20;;;;;;;;;;5015293;28;20232;-89
2022/12/23 12:12:03;;;;;;;18.30;9.20;;;;;;;;;;5035927;28;20232;-90
2022/12/23 12:14:33;;;;;;;3.13;2.93;;;;;;;;;;5011193;28;20224;-92
2022/12/23 12:17:08;;;;;;;9.83;5.77;;;;;;;;;;5027771;28;20238;-91
2022/12/23 12:19:41;;;;;;;2.20;2.10;;;;;;;;;;5013554;28;20208;-91
2022/12/23 12:22:12;;;;;;;6.60;3.93;;;;;;;;;;5016894;28;20219;-91
2022/12/23 12:24:44;;;;;;;6.47;4.80;;;;;;;;;;5038344;28;20210;-90
2022/12/23 12:27:15;;;;;;;14.10;6.27;;;;;;;;;;5006912;28;20227;-90
2022/12/23 12:29:46;;;;;;;9.30;5.27;;;;;;;;;;5013428;28;20213;-91
2022/12/23 12:32:20;;;;;;;2.53;2.33;;;;;;;;;;5034435;28;20221;-91
2022/12/23 12:34:52;;;;;;;1.63;1.63;;;;;;;;;;5012589;28;20288;-90
2022/12/23 12:37:28;;;;;;;3.63;2.17;;;;;;;;;;5017017;28;20216;-89
2022/12/23 12:39:57;;;;;;;4.33;3.40;;;;;;;;;;5010214;28;20246;-89
2022/12/23 12:42:28;;;;;;;9.43;1.73;;;;;;;;;;5012937;28;20210;-89
2022/12/23 12:44:59;;;;;;;10.97;4.17;;;;;;;;;;5006412;28;20257;-89
2022/12/23 12:47:32;;;;;;;9.37;3.27;;;;;;;;;;5030138;28;20264;-91
2022/12/23 12:50:22;;;;;;;2.83;1.70;;;;;;;;;;5010603;28;20206;-90
2022/12/23 12:52:53;;;;;;;6.53;4.60;;;;;;;;;;5005851;28;20215;-89
2022/12/23 12:55:23;;;;;;;10.87;4.87;;;;;;;;;;5009215;28;20239;-92
2022/12/23 12:57:52;;;;;;;1.77;1.77;;;;;;;;;;5008272;28;20214;-88
2022/12/23 13:00:22;;;;;;;0.80;0.70;;;;;;;;;;5033467;28;20209;-87
2022/12/23 13:03:05;;;;;;;6.97;2.03;;;;;;;;;;5033717;28;20189;-88
2022/12/23 13:05:42;;;;;;;3.37;2.70;;;;;;;;;;5008451;28;20262;-88
2022/12/23 13:08:28;;;;;;;0.63;0.63;;;;;;;;;;5027632;28;20206;-88
2022/12/23 13:10:58;;;;;;;5.40;3.43;;;;;;;;;;5023861;28;20456;-88
2022/12/23 13:13:33;;;;;;;3.00;2.07;;;;;;;;;;5008439;28;20420;-89
2022/12/23 13:16:03;;;;;;;3.60;3.27;;;;;;;;;;5009757;28;20237;-90
2022/12/23 13:18:36;;;;;;;4.27;2.93;;;;;;;;;;5013123;28;20259;-90
2022/12/23 13:21:08;;;;;;;9.90;4.67;;;;;;;;;;5014157;28;20258;-90
2022/12/23 13:23:41;;;;;;;1.53;1.53;;;;;;;;;;5013176;28;20196;-88
2022/12/23 13:26:16;;;;;;;0.70;0.70;;;;;;;;;;5010731;28;20204;-90
2022/12/23 13:28:49;;;;;;;11.13;5.17;;;;;;;;;;5011170;28;20221;-90
2022/12/23 13:31:26;;;;;;;4.97;1.97;;;;;;;;;;5012925;28;20255;-88
2022/12/23 13:33:58;;;;;;;4.43;3.80;;;;;;;;;;5030598;28;20342;-88
2022/12/23 13:36:40;;;;;;;2.93;2.70;;;;;;;;;;5013111;28;20212;-88
2022/12/23 13:39:16;;;;;;;1.67;1.57;;;;;;;;;;5023702;28;20262;-89
2022/12/23 13:41:45;;;;;;;2.07;1.97;;;;;;;;;;5010263;28;20222;-89
2022/12/23 13:44:14;;;;;;;2.57;2.33;;;;;;;;;;5009738;28;20228;-92
2022/12/23 13:46:49;;;;;;;8.57;5.63;;;;;;;;;;5026437;28;20265;-88
2022/12/23 13:49:22;;;;;;;4.23;1.90;;;;;;;;;;5007890;28;20208;-88
2022/12/23 13:51:55;;;;;;;10.50;5.70;;;;;;;;;;5015735;28;20194;-89
2022/12/23 13:54:32;;;;;;;4.07;2.97;;;;;;;;;;5006200;28;20242;-89
2022/12/23 13:57:07;;;;;;;4.40;3.03;;;;;;;;;;5007625;28;20198;-88
2022/12/23 13:59:41;;;;;;;4.83;4.43;;;;;;;;;;5012941;28;20200;-87
2022/12/23 14:02:31;;;;;;;1.27;1.23;;;;;;;;;;5030504;28;20306;-88
2022/12/23 14:05:00;;;;;;;7.07;4.03;;;;;;;;;;5020377;28;20213;-87
2022/12/23 14:07:30;;;;;;;6.27;3.50;;;;;;;;;;5029632;28;20214;-86
2022/12/23 14:10:09;;;;;;;1.37;0.90;;;;;;;;;;5007413;28;20242;-87
2022/12/23 14:12:39;;;;;;;5.03;3.37;;;;;;;;;;5029265;28;20243;-87
2022/12/23 14:15:34;;;;;;;13.90;6.13;;;;;;;;;;5009555;28;20264;-87
2022/12/23 14:18:10;;;;;;;10.50;4.10;;;;;;;;;;4969415;28;20297;-86
2022/12/23 14:20:44;;;;;;;2.77;2.57;;;;;;;;;;5008672;28;20196;-86
2022/12/23 14:23:21;;;;;;;3.17;1.47;;;;;;;;;;5027766;28;20203;-86
2022/12/23 14:25:56;;;;;;;10.47;5.07;;;;;;;;;;5008620;28;20290;-87
2022/12/23 14:28:48;;;;;;;4.70;1.87;;;;;;;;;;5001360;28;20197;-87
2022/12/23 14:31:38;;;;;;;1.67;1.57;;;;;;;;;;4997094;28;20220;-86
2022/12/23 14:34:23;;;;;;;8.70;4.10;;;;;;;;;;5024433;28;20291;-86
2022/12/23 14:37:10;;;;;;;1.57;1.47;;;;;;;;;;5006646;28;20211;-86
2022/12/23 14:39:40;;;;;;;1.63;1.53;;;;;;;;;;5030550;28;20236;-85
2022/12/23 14:42:11;;;;;;;1.63;1.43;;;;;;;;;;5015767;28;20259;-85
2022/12/23 14:44:51;;;;;;;1.67;1.57;;;;;;;;;;5015542;28;20199;-87
2022/12/23 14:47:30;;;;;;;2.07;1.93;;;;;;;;;;5028402;28;20203;-87
2022/12/23 14:50:28;;;;;;;5.97;4.37;;;;;;;;;;5016451;28;20221;-87
2022/12/23 14:53:00;;;;;;;1.37;1.37;;;;;;;;;;5029308;28;20272;-87
2022/12/23 14:55:43;;;;;;;10.77;1.77;;;;;;;;;;5013289;28;20206;-88
2022/12/23 14:58:27;;;;;;;3.37;2.43;;;;;;;;;;5011676;28;20203;-87
2022/12/23 15:00:57;;;;;;;2.87;2.60;;;;;;;;;;5016067;28;20592;-88
2022/12/23 15:03:30;;;;;;;6.10;4.50;;;;;;;;;;5032394;28;20194;-87
2022/12/23 15:05:59;;;;;;;2.63;2.33;;;;;;;;;;5006823;28;20204;-86
2022/12/23 15:08:30;;;;;;;1.97;1.87;;;;;;;;;;5011238;28;20236;-87
2022/12/23 15:11:00;;;;;;;4.00;2.03;;;;;;;;;;5003087;28;20206;-85
2022/12/23 15:13:30;;;;;;;4.70;2.90;;;;;;;;;;5012592;28;20231;-83
2022/12/23 15:15:58;;;;;;;4.67;4.13;;;;;;;;;;5012261;28;20236;-85
2022/12/23 15:18:29;;;;;;;2.97;2.77;;;;;;;;;;5014944;28;20305;-87
2022/12/23 15:20:59;;;;;;;9.97;5.30;;;;;;;;;;5014535;28;20202;-87
2022/12/23 15:23:27;;;;;;;2.67;2.47;;;;;;;;;;5028899;28;20202;-85
2022/12/23 15:25:57;;;;;;;3.57;3.10;;;;;;;;;;5010370;28;20206;-86
2022/12/23 15:28:33;;;;;;;3.90;3.13;;;;;;;;;;5013804;28;20202;-88
2022/12/23 15:31:02;;;;;;;4.90;2.40;;;;;;;;;;5011075;28;20203;-88
2022/12/23 15:33:34;;;;;;;6.83;3.60;;;;;;;;;;5009274;28;20281;-86
2022/12/23 15:36:30;;;;;;;2.97;2.67;;;;;;;;;;5013534;28;20293;-86
2022/12/23 15:39:00;;;;;;;7.77;4.37;;;;;;;;;;5016524;28;20201;-86